createdAt,value
2023-02-08T00:01:24.479Z,71.00
2023-02-08T00:03:53.138Z,71.10
2023-02-08T00:06:21.631Z,72.00
2023-02-08T00:08:49.901Z,72.30
2023-02-08T00:11:19.605Z,72.70
2023-02-08T00:13:48.130Z,73.30
2023-02-08T00:16:18.487Z,73.70
2023-02-08T00:18:46.856Z,73.70
2023-02-08T00:21:17.526Z,73.70
2023-02-08T00:23:46.491Z,75.10
2023-02-08T00:26:14.933Z,75.00
2023-02-08T00:28:44.630Z,76.30
2023-02-08T00:31:13.101Z,78.20
2023-02-08T00:33:41.456Z,79.40
2023-02-08T00:36:10.688Z,78.90
2023-02-08T00:38:38.970Z,79.60
2023-02-08T00:41:07.320Z,79.50
2023-02-08T00:43:35.935Z,79.70
2023-02-08T00:46:05.890Z,80.50
2023-02-08T00:48:34.200Z,81.60
2023-02-08T00:51:04.146Z,82.10
2023-02-08T00:53:32.767Z,81.80
2023-02-08T00:56:01.053Z,82.20
2023-02-08T00:58:29.366Z,82.80
2023-02-08T01:00:57.735Z,83.50
2023-02-08T01:03:27.588Z,83.60
2023-02-08T01:06:01.460Z,83.70
2023-02-08T01:08:29.741Z,83.70
2023-02-08T01:11:04.689Z,82.60
2023-02-08T01:13:33.044Z,82.30
2023-02-08T01:16:08.551Z,82.00
2023-02-08T01:18:39.043Z,81.70
2023-02-08T01:21:09.538Z,81.90
2023-02-08T01:23:38.359Z,81.20
2023-02-08T01:26:07.651Z,81.20
2023-02-08T01:28:36.376Z,80.90
2023-02-08T01:31:08.071Z,80.60
2023-02-08T01:33:38.098Z,80.10
2023-02-08T01:36:07.793Z,80.00
2023-02-08T01:38:36.338Z,79.40
2023-02-08T01:41:05.682Z,78.40
2023-02-08T01:43:36.140Z,78.40
2023-02-08T01:46:04.475Z,78.60
2023-02-08T01:48:35.744Z,78.30
2023-02-08T01:51:10.284Z,78.30
2023-02-08T01:53:39.119Z,78.20
2023-02-08T01:56:11.428Z,78.20
2023-02-08T01:58:45.498Z,78.20
2023-02-08T02:01:15.209Z,78.00
2023-02-08T02:03:44.171Z,78.10
2023-02-08T02:06:18.605Z,78.30
2023-02-08T02:09:02.932Z,78.50
2023-02-08T02:11:31.267Z,78.00
2023-02-08T02:14:01.325Z,77.50
2023-02-08T02:16:29.788Z,77.30
2023-02-08T02:18:58.299Z,77.30
2023-02-08T02:21:42.503Z,77.30
2023-02-08T02:24:35.012Z,77.20
2023-02-08T02:27:27.465Z,77.00
2023-02-08T02:30:26.425Z,76.40
2023-02-08T02:33:16.563Z,76.00
2023-02-08T02:35:52.381Z,75.70
2023-02-08T02:38:30.546Z,75.30
2023-02-08T02:41:06.480Z,75.00
2023-02-08T02:43:42.964Z,74.50
2023-02-08T02:46:23.344Z,74.80
2023-02-08T02:49:00.874Z,74.80
2023-02-08T02:51:33.603Z,74.20
2023-02-08T02:54:07.552Z,73.80
2023-02-08T02:56:39.617Z,74.10
2023-02-08T02:59:10.102Z,74.10
2023-02-08T03:01:39.210Z,73.90
2023-02-08T03:04:16.743Z,73.80
2023-02-08T03:06:58.359Z,73.90
2023-02-08T03:09:58.247Z,73.40
2023-02-08T03:12:37.225Z,72.90
2023-02-08T03:15:16.912Z,73.00
2023-02-08T03:17:58.206Z,73.10
2023-02-08T03:20:32.606Z,73.10
2023-02-08T03:23:05.900Z,73.20
2023-02-08T03:25:40.987Z,74.10
2023-02-08T03:28:18.319Z,73.50
2023-02-08T03:30:52.093Z,73.50
2023-02-08T03:33:24.916Z,73.50
2023-02-08T03:35:57.712Z,73.20
2023-02-08T03:38:32.594Z,73.10
2023-02-08T03:41:03.726Z,73.30
2023-02-08T03:43:35.380Z,73.30
2023-02-08T03:46:12.524Z,73.30
2023-02-08T03:48:44.753Z,73.20
2023-02-08T03:51:16.938Z,72.40
2023-02-08T03:53:46.179Z,72.70
2023-02-08T03:56:36.898Z,72.80
2023-02-08T03:59:08.827Z,72.40
2023-02-08T04:01:44.285Z,72.20
2023-02-08T04:04:13.837Z,72.10
2023-02-08T04:06:43.497Z,71.90
2023-02-08T04:09:11.799Z,71.50
2023-02-08T04:11:40.108Z,71.20
2023-02-08T04:14:08.413Z,70.90
2023-02-08T04:16:36.657Z,70.50
2023-02-08T04:19:04.937Z,69.80
2023-02-08T04:21:33.419Z,70.30
2023-02-08T04:24:03.160Z,69.60
2023-02-08T04:26:31.610Z,68.90
2023-02-08T04:28:59.891Z,69.20
2023-02-08T04:31:28.470Z,68.90
2023-02-08T04:33:56.761Z,69.30
2023-02-08T04:36:25.103Z,68.60
2023-02-08T04:38:53.450Z,68.40
2023-02-08T04:41:23.241Z,68.70
2023-02-08T04:43:51.584Z,68.30
2023-02-08T04:46:19.880Z,67.70
2023-02-08T04:48:48.224Z,68.20
2023-02-08T04:51:16.570Z,68.20
2023-02-08T04:53:44.857Z,68.30
2023-02-08T04:56:13.138Z,68.40
2023-02-08T04:58:42.897Z,68.10
2023-02-08T05:01:11.950Z,68.50
2023-02-08T05:03:40.176Z,68.90
2023-02-08T05:06:08.865Z,68.90
2023-02-08T05:08:37.134Z,68.80
2023-02-08T05:11:05.550Z,68.80
2023-02-08T05:13:34.054Z,68.50
2023-02-08T05:16:04.244Z,68.90
2023-02-08T05:18:32.496Z,68.70
2023-02-08T05:21:03.994Z,68.60
2023-02-08T05:23:33.393Z,68.50
2023-02-08T05:26:01.959Z,68.50
2023-02-08T05:28:30.228Z,68.60
2023-02-08T05:30:58.659Z,68.50
2023-02-08T05:33:28.408Z,68.60
2023-02-08T05:35:59.797Z,68.60
2023-02-08T05:38:28.096Z,69.10
2023-02-08T05:40:56.496Z,69.10
2023-02-08T05:43:24.709Z,68.70
2023-02-08T05:45:53.344Z,68.60
2023-02-08T05:48:21.670Z,68.60
2023-02-08T05:50:51.363Z,68.50
2023-02-08T05:53:19.654Z,68.10
2023-02-08T05:55:49.106Z,67.40
2023-02-08T05:58:18.043Z,66.60
2023-02-08T06:00:46.455Z,67.00
2023-02-08T06:03:14.844Z,66.90
2023-02-08T06:05:43.528Z,66.90
2023-02-08T06:08:13.189Z,66.80
2023-02-08T06:10:41.778Z,66.10
2023-02-08T06:13:10.231Z,66.50
2023-02-08T06:15:41.259Z,65.90
2023-02-08T06:18:09.626Z,65.90
2023-02-08T06:20:38.160Z,65.60
2023-02-08T06:23:06.699Z,65.70
2023-02-08T06:25:36.454Z,65.80
2023-02-08T06:28:04.938Z,65.90
2023-02-08T06:30:33.278Z,66.10
2023-02-08T06:33:01.562Z,65.60
2023-02-08T06:35:30.032Z,65.50
2023-02-08T06:37:58.851Z,65.30
2023-02-08T06:40:27.477Z,65.50
2023-02-08T06:42:57.228Z,65.90
2023-02-08T06:45:25.523Z,65.50
2023-02-08T06:47:53.795Z,65.70
2023-02-08T06:50:24.083Z,65.30
2023-02-08T06:52:52.523Z,64.60
2023-02-08T06:55:20.848Z,64.70
2023-02-08T06:57:49.161Z,64.60
2023-02-08T07:00:19.815Z,65.00
2023-02-08T07:02:48.418Z,65.10
2023-02-08T07:05:16.956Z,64.80
2023-02-08T07:07:45.301Z,65.10
2023-02-08T07:10:13.601Z,63.90
2023-02-08T07:12:41.829Z,63.90
2023-02-08T07:15:13.473Z,64.00
2023-02-08T07:17:43.163Z,63.50
2023-02-08T07:20:12.616Z,63.50
2023-02-08T07:22:41.368Z,63.20
2023-02-08T07:25:12.797Z,62.50
2023-02-08T07:27:41.160Z,62.70
2023-02-08T07:30:10.626Z,62.90
2023-02-08T07:32:38.897Z,62.60
2023-02-08T07:35:09.489Z,62.80
2023-02-08T07:37:37.847Z,62.20
2023-02-08T07:40:06.752Z,63.50
2023-02-08T07:42:35.119Z,62.10
2023-02-08T07:45:04.448Z,62.30
2023-02-08T07:47:32.871Z,61.90
2023-02-08T07:50:01.246Z,61.60
2023-02-08T07:52:30.988Z,61.10
2023-02-08T07:54:59.191Z,60.40
2023-02-08T07:57:27.517Z,60.80
2023-02-08T07:59:55.829Z,61.60
2023-02-08T08:02:24.218Z,61.20
2023-02-08T08:04:54.159Z,60.80
2023-02-08T08:07:22.501Z,60.90
2023-02-08T08:09:52.282Z,63.10
2023-02-08T08:12:20.931Z,64.10
2023-02-08T08:14:49.267Z,64.40
2023-02-08T08:17:17.712Z,64.60
2023-02-08T08:19:46.149Z,64.80
2023-02-08T08:22:14.454Z,64.80
2023-02-08T08:24:42.637Z,64.00
2023-02-08T08:27:12.294Z,64.40
2023-02-08T08:29:40.622Z,64.50
2023-02-08T08:32:11.777Z,65.00
2023-02-08T08:34:40.290Z,65.10
2023-02-08T08:37:08.552Z,64.70
2023-02-08T08:39:37.270Z,64.50
2023-02-08T08:42:05.900Z,64.10
2023-02-08T08:44:35.656Z,64.20
2023-02-08T08:47:06.590Z,63.80
2023-02-08T08:49:35.932Z,64.00
2023-02-08T08:52:06.170Z,64.30
2023-02-08T08:54:34.648Z,64.30
2023-02-08T08:57:03.349Z,64.90
2023-02-08T08:59:31.660Z,65.40
2023-02-08T09:02:01.696Z,65.70
2023-02-08T09:04:33.192Z,66.00
2023-02-08T09:07:01.613Z,66.20
2023-02-08T09:09:30.076Z,67.00
2023-02-08T09:11:59.791Z,67.20
2023-02-08T09:14:28.308Z,68.00
2023-02-08T09:16:56.732Z,69.40
2023-02-08T09:19:27.971Z,69.50
2023-02-08T09:21:57.974Z,69.70
2023-02-08T09:24:26.315Z,70.00
2023-02-08T09:26:54.681Z,70.00
2023-02-08T09:29:23.035Z,70.50
2023-02-08T09:31:51.377Z,70.40
2023-02-08T09:34:19.777Z,70.20
2023-02-08T09:36:49.758Z,70.40
2023-02-08T09:39:19.919Z,70.70
2023-02-08T09:42:16.649Z,70.70
2023-02-08T09:44:59.363Z,71.00
2023-02-08T09:47:35.915Z,71.20
2023-02-08T09:50:08.697Z,71.10
2023-02-08T09:52:53.193Z,71.20
2023-02-08T09:55:33.193Z,71.30
2023-02-08T09:58:05.377Z,71.20
2023-02-08T10:00:37.444Z,71.70
2023-02-08T10:03:08.510Z,71.50
2023-02-08T10:05:36.886Z,71.60
2023-02-08T10:08:12.426Z,72.10
2023-02-08T10:10:51.320Z,72.20
2023-02-08T10:13:41.580Z,72.30
2023-02-08T10:16:19.691Z,72.70
2023-02-08T10:18:53.512Z,73.10
2023-02-08T10:21:46.723Z,73.10
2023-02-08T10:24:57.109Z,73.10
2023-02-08T10:27:58.041Z,73.10
2023-02-08T10:30:38.757Z,73.30
2023-02-08T10:33:15.244Z,73.30
2023-02-08T10:35:47.991Z,73.60
2023-02-08T10:38:29.721Z,73.40
2023-02-08T10:47:55.538Z,72.80
2023-02-08T10:50:30.952Z,72.30
2023-02-08T10:52:59.614Z,73.10
2023-02-08T10:55:51.670Z,73.30
2023-02-08T10:58:22.267Z,73.40
2023-02-08T11:01:09.017Z,74.00
2023-02-08T11:03:39.633Z,73.50
2023-02-08T11:06:27.384Z,73.40
2023-02-08T11:08:58.829Z,73.40
2023-02-08T11:11:29.883Z,73.60
2023-02-08T11:14:09.604Z,74.80
2023-02-08T11:16:39.477Z,74.10
2023-02-08T11:19:23.618Z,73.60
2023-02-08T11:21:53.502Z,73.30
2023-02-08T11:24:29.010Z,72.40
2023-02-08T11:26:57.708Z,72.50
2023-02-08T11:29:29.553Z,72.40
2023-02-08T11:32:05.184Z,71.60
2023-02-08T11:34:38.606Z,71.10
2023-02-08T11:37:16.173Z,70.80
2023-02-08T11:39:49.770Z,70.60
2023-02-08T11:42:22.674Z,71.00
2023-02-08T11:44:52.018Z,70.20
2023-02-08T11:47:47.562Z,70.50
2023-02-08T11:50:56.108Z,70.00
2023-02-08T11:53:29.788Z,69.20
2023-02-08T11:56:07.166Z,68.70
2023-02-08T11:58:35.951Z,68.50
2023-02-08T12:01:08.344Z,68.50
2023-02-08T12:03:39.792Z,68.20
2023-02-08T12:06:36.191Z,68.20
2023-02-08T12:09:11.548Z,67.00
2023-02-08T12:11:44.180Z,67.50
2023-02-08T12:14:31.492Z,68.60
2023-02-08T12:17:17.350Z,67.30
2023-02-08T12:20:07.798Z,65.70
2023-02-08T12:22:40.698Z,65.70
2023-02-08T12:25:23.955Z,64.50
2023-02-08T12:28:00.162Z,65.20
2023-02-08T12:30:34.600Z,64.20
2023-02-08T12:33:29.292Z,65.00
2023-02-08T12:36:09.594Z,64.40
2023-02-08T12:39:19.906Z,63.90
2023-02-08T12:41:59.317Z,63.50
2023-02-08T12:44:37.771Z,64.10
2023-02-08T12:47:20.883Z,64.20
2023-02-08T12:50:03.026Z,63.20
2023-02-08T12:52:37.821Z,62.10
2023-02-08T12:55:18.696Z,61.40
2023-02-08T12:57:50.970Z,61.30
2023-02-08T13:00:23.003Z,61.20
2023-02-08T13:02:58.645Z,60.50
2023-02-08T13:05:34.245Z,61.00
2023-02-08T13:08:10.186Z,61.10
2023-02-08T13:10:42.364Z,61.40
2023-02-08T13:13:17.312Z,61.90
2023-02-08T13:15:50.550Z,62.00
2023-02-08T13:18:22.012Z,59.90
2023-02-08T13:20:53.796Z,59.40
2023-02-08T13:23:27.828Z,59.80
2023-02-08T13:26:02.205Z,60.20
2023-02-08T13:28:30.940Z,60.10
2023-02-08T13:31:02.993Z,58.20
2023-02-08T13:33:37.340Z,58.50
2023-02-08T13:36:06.440Z,58.60
2023-02-08T13:38:36.843Z,56.10
2023-02-08T13:41:15.378Z,55.90
2023-02-08T13:43:49.959Z,56.30
2023-02-08T13:46:19.936Z,53.00
2023-02-08T13:48:50.949Z,50.60
2023-02-08T13:51:59.778Z,48.70
2023-02-08T13:54:28.354Z,44.70
2023-02-08T13:56:58.520Z,45.70
2023-02-08T13:59:30.457Z,46.00
2023-02-08T14:02:24.976Z,47.10
2023-02-08T14:04:55.837Z,45.40
2023-02-08T14:07:30.419Z,41.80
2023-02-08T14:10:09.260Z,40.30
2023-02-08T14:12:44.764Z,41.00
2023-02-08T14:15:31.253Z,39.60
2023-02-08T14:18:01.623Z,37.80
2023-02-08T14:20:38.787Z,36.40
2023-02-08T14:23:21.449Z,36.80
2023-02-08T14:25:52.237Z,37.30
2023-02-08T14:28:32.216Z,38.40
2023-02-08T14:31:04.085Z,37.90
2023-02-08T14:33:36.173Z,39.00
2023-02-08T14:36:07.454Z,39.10
2023-02-08T14:39:08.318Z,38.60
2023-02-08T14:42:00.206Z,40.00
2023-02-08T14:45:04.642Z,39.90
2023-02-08T14:48:23.657Z,40.90
2023-02-08T14:51:17.322Z,41.50
2023-02-08T14:53:49.688Z,42.80
2023-02-08T14:56:22.273Z,43.40
2023-02-08T14:58:53.025Z,43.30
2023-02-08T15:01:30.787Z,43.80
2023-02-08T15:04:02.804Z,44.30
2023-02-08T15:07:19.377Z,44.70
2023-02-08T15:09:47.886Z,45.50
2023-02-08T15:12:23.455Z,47.00
2023-02-08T15:14:53.542Z,46.80
2023-02-08T15:17:32.375Z,47.80
2023-02-08T15:20:02.437Z,48.40
2023-02-08T15:22:36.937Z,49.70
2023-02-08T15:25:23.095Z,49.40
2023-02-08T15:27:53.615Z,49.90
2023-02-08T15:30:31.694Z,50.30
2023-02-08T15:33:02.063Z,50.90
2023-02-08T15:35:32.949Z,51.00
2023-02-08T15:38:02.950Z,52.10
2023-02-08T15:40:36.234Z,52.80
2023-02-08T15:43:11.966Z,52.70
2023-02-08T15:45:40.564Z,53.40
2023-02-08T15:48:11.848Z,53.50
2023-02-08T15:50:40.209Z,53.60
2023-02-08T15:53:14.681Z,54.20
2023-02-08T15:55:48.719Z,55.00
2023-02-08T15:58:28.674Z,55.50
2023-02-08T16:00:59.382Z,55.20
2023-02-08T16:03:30.834Z,56.10
2023-02-08T16:06:01.880Z,56.50
2023-02-08T16:08:32.177Z,56.30
2023-02-08T16:11:03.018Z,56.50
2023-02-08T16:13:34.836Z,56.90
2023-02-08T16:16:17.469Z,56.60
2023-02-08T16:18:50.283Z,56.80
2023-02-08T16:21:32.655Z,57.00
2023-02-08T16:24:05.859Z,57.20
2023-02-08T16:26:43.114Z,57.50
2023-02-08T16:29:20.299Z,57.80
2023-02-08T16:31:57.092Z,58.00
2023-02-08T16:34:28.226Z,57.90
2023-02-08T16:36:56.783Z,58.20
2023-02-08T16:39:39.357Z,58.60
2023-02-08T16:42:20.021Z,58.90
2023-02-08T16:45:14.663Z,59.10
2023-02-08T16:47:44.926Z,58.80
2023-02-08T16:50:17.098Z,58.60
2023-02-08T16:52:45.867Z,58.90
2023-02-08T16:55:20.497Z,59.90
2023-02-08T16:57:50.850Z,59.40
2023-02-08T17:00:22.720Z,59.30
2023-02-08T17:02:51.508Z,59.20
2023-02-08T17:05:22.703Z,59.40
2023-02-08T17:07:51.976Z,59.40
2023-02-08T17:10:28.792Z,59.40
2023-02-08T17:13:13.244Z,59.70
2023-02-08T17:15:46.318Z,59.70
2023-02-08T17:18:15.355Z,59.90
2023-02-08T17:20:45.639Z,60.30
2023-02-08T17:23:15.886Z,60.00
2023-02-08T17:25:44.949Z,59.90
2023-02-08T17:28:18.462Z,59.90
2023-02-08T17:30:47.604Z,59.90
2023-02-08T17:33:18.577Z,59.90
2023-02-08T17:35:52.194Z,59.80
2023-02-08T17:38:21.553Z,59.90
2023-02-08T17:40:50.305Z,59.90
2023-02-08T17:43:19.018Z,60.20
2023-02-08T17:45:47.871Z,60.00
2023-02-08T17:48:16.421Z,60.20
2023-02-08T17:51:13.601Z,60.20
2023-02-08T17:53:44.262Z,60.50
2023-02-08T17:56:14.992Z,60.30
2023-02-08T17:58:43.696Z,60.10
2023-02-08T18:01:17.510Z,60.00
2023-02-08T18:03:46.453Z,59.90
2023-02-08T18:06:16.493Z,59.80
2023-02-08T18:08:45.073Z,59.80
2023-02-08T18:11:17.923Z,59.80
2023-02-08T18:13:46.799Z,59.90
2023-02-08T18:16:18.086Z,59.90
2023-02-08T18:18:46.566Z,59.90
2023-02-08T18:21:18.294Z,60.10
2023-02-08T18:23:47.528Z,60.30
2023-02-08T18:26:17.824Z,60.50
2023-02-08T18:28:46.575Z,60.50
2023-02-08T18:31:16.810Z,60.70
2023-02-08T18:33:45.633Z,61.00
2023-02-08T18:36:16.264Z,61.10
2023-02-08T18:38:46.444Z,61.20
2023-02-08T18:41:17.300Z,61.40
2023-02-08T18:43:45.880Z,61.30
2023-02-08T18:46:17.967Z,61.40
2023-02-08T18:48:46.963Z,61.40
2023-02-08T18:51:19.720Z,61.30
2023-02-08T18:53:50.934Z,61.30
2023-02-08T18:56:21.560Z,61.10
2023-02-08T18:58:49.918Z,61.70
2023-02-08T19:01:19.875Z,61.80
2023-02-08T19:03:48.712Z,61.70
2023-02-08T19:06:22.395Z,61.40
2023-02-08T19:08:52.773Z,61.40
2023-02-08T19:11:23.713Z,61.40
2023-02-08T19:13:53.072Z,61.40
2023-02-08T19:16:22.902Z,61.40
2023-02-08T19:18:51.374Z,61.60
2023-02-08T19:21:21.430Z,61.60
2023-02-08T19:23:51.942Z,61.70
2023-02-08T19:26:22.655Z,61.90
2023-02-08T19:28:51.436Z,61.90
2023-02-08T19:31:21.934Z,62.00
2023-02-08T19:33:53.597Z,62.10
2023-02-08T19:36:25.456Z,62.30
2023-02-08T19:38:54.691Z,63.20
2023-02-08T19:41:28.875Z,64.10
2023-02-08T19:43:57.291Z,63.00
2023-02-08T19:46:27.642Z,62.70
2023-02-08T19:49:00.163Z,63.20
2023-02-08T19:51:32.266Z,63.50
2023-02-08T19:54:01.148Z,63.20
2023-02-08T19:56:31.275Z,63.20
2023-02-08T19:58:59.704Z,63.10
2023-02-08T20:01:28.239Z,63.80
2023-02-08T20:03:56.608Z,63.60
2023-02-08T20:06:27.611Z,63.50
2023-02-08T20:08:57.483Z,63.30
2023-02-08T20:11:27.371Z,63.20
2023-02-08T20:13:57.681Z,63.60
2023-02-08T20:16:26.786Z,63.70
2023-02-08T20:18:55.362Z,63.50
2023-02-08T20:21:24.341Z,63.60
2023-02-08T20:23:52.727Z,63.80
2023-02-08T20:26:25.121Z,63.80
2023-02-08T20:28:57.208Z,63.80
2023-02-08T20:31:28.237Z,63.70
2023-02-08T20:33:59.825Z,63.80
2023-02-08T20:36:30.301Z,64.00
2023-02-08T20:38:59.682Z,64.10
2023-02-08T20:41:33.915Z,64.00
2023-02-08T20:44:02.446Z,64.00
2023-02-08T20:46:33.810Z,64.20
2023-02-08T20:49:03.516Z,64.00
2023-02-08T20:51:32.351Z,64.30
2023-02-08T20:54:02.348Z,64.40
2023-02-08T20:56:33.897Z,64.40
2023-02-08T20:59:06.638Z,65.00
2023-02-08T21:01:36.140Z,65.30
2023-02-08T21:04:05.565Z,65.40
2023-02-08T21:06:35.556Z,65.30
2023-02-08T21:09:06.273Z,65.30
2023-02-08T21:11:37.106Z,65.50
2023-02-08T21:14:06.152Z,65.70
2023-02-08T21:16:34.910Z,65.80
2023-02-08T21:19:03.417Z,65.90
2023-02-08T21:21:32.275Z,66.50
2023-02-08T21:24:00.826Z,66.30
2023-02-08T21:26:29.526Z,66.40
2023-02-08T21:29:00.425Z,66.70
2023-02-08T21:31:28.966Z,66.60
2023-02-08T21:33:57.320Z,66.90
2023-02-08T21:36:25.994Z,67.40
2023-02-08T21:38:54.290Z,67.50
2023-02-08T21:41:24.925Z,67.70
2023-02-08T21:43:56.155Z,67.90
2023-02-08T21:46:27.872Z,67.80
2023-02-08T21:49:15.062Z,67.90
2023-02-08T21:52:01.319Z,68.10
2023-02-08T21:54:44.536Z,68.10
2023-02-08T21:57:16.786Z,68.40
2023-02-08T21:59:45.232Z,68.70
2023-02-08T22:02:21.803Z,68.70
2023-02-08T22:04:50.716Z,68.90
2023-02-08T22:07:19.204Z,69.30
2023-02-08T22:09:47.519Z,69.30
2023-02-08T22:12:17.527Z,69.50
2023-02-08T22:14:45.922Z,69.60
2023-02-08T22:17:16.263Z,69.90
2023-02-08T22:19:45.137Z,70.20
2023-02-08T22:22:14.150Z,70.50
2023-02-08T22:24:42.611Z,71.40
2023-02-08T22:27:11.569Z,71.00
2023-02-08T22:29:39.896Z,70.50
2023-02-08T22:32:10.018Z,70.50
2023-02-08T22:34:40.218Z,71.10
2023-02-08T22:37:08.564Z,71.10
2023-02-08T22:39:36.930Z,71.90
2023-02-08T22:42:08.819Z,71.40
2023-02-08T22:44:37.392Z,71.30
2023-02-08T22:47:06.570Z,71.20
2023-02-08T22:49:37.842Z,71.50
2023-02-08T22:52:08.808Z,71.40
2023-02-08T22:54:37.575Z,71.90
2023-02-08T22:57:07.116Z,71.90
2023-02-08T22:59:35.847Z,72.20
2023-02-08T23:02:04.640Z,72.30
2023-02-08T23:04:33.488Z,73.80
2023-02-08T23:07:01.940Z,73.60
2023-02-08T23:09:31.971Z,73.30
2023-02-08T23:12:00.292Z,73.20
2023-02-08T23:14:28.593Z,73.90
2023-02-08T23:16:57.068Z,73.90
2023-02-08T23:19:25.429Z,73.50
2023-02-08T23:21:53.696Z,73.30
2023-02-08T23:24:21.975Z,73.20
2023-02-08T23:26:51.700Z,73.70
2023-02-08T23:29:19.971Z,73.90
2023-02-08T23:31:48.418Z,74.50
2023-02-08T23:34:16.879Z,73.80
2023-02-08T23:36:45.702Z,73.80
2023-02-08T23:39:14.072Z,73.60
2023-02-08T23:41:42.522Z,73.50
2023-02-08T23:44:12.749Z,73.50
2023-02-08T23:46:41.235Z,73.50
2023-02-08T23:49:09.582Z,73.80
2023-02-08T23:51:37.859Z,73.50
2023-02-08T23:54:06.606Z,73.60
2023-02-08T23:56:34.852Z,73.80
2023-02-08T23:59:05.809Z,73.60
